createdAt,value
2023-02-24T00:01:24.817Z,94322.50
2023-02-24T00:03:56.704Z,94323.22
2023-02-24T00:06:23.797Z,94319.31
2023-02-24T00:08:50.432Z,94319.09
2023-02-24T00:11:18.815Z,94312.00
2023-02-24T00:13:49.143Z,94308.34
2023-02-24T00:16:17.909Z,94308.13
2023-02-24T00:18:45.543Z,94306.31
2023-02-24T00:21:15.537Z,94306.94
2023-02-24T00:23:43.563Z,94296.81
2023-02-24T00:26:13.088Z,94296.75
2023-02-24T00:28:39.696Z,94290.31
2023-02-24T00:31:08.391Z,94290.53
2023-02-24T00:33:35.044Z,94290.41
2023-02-24T00:36:06.697Z,94285.28
2023-02-24T00:38:35.979Z,94283.81
2023-02-24T00:41:08.922Z,94292.75
2023-02-24T00:43:37.870Z,94287.59
2023-02-24T00:46:11.290Z,94281.84
2023-02-24T00:48:40.469Z,94284.75
2023-02-24T00:51:10.139Z,94275.41
2023-02-24T00:53:38.861Z,94277.28
2023-02-24T00:56:07.189Z,94278.41
2023-02-24T00:58:34.996Z,94282.22
2023-02-24T01:01:02.629Z,94273.31
2023-02-24T01:03:29.205Z,94272.72
2023-02-24T01:05:55.784Z,94271.94
2023-02-24T01:08:23.013Z,94271.56
2023-02-24T01:11:19.143Z,94273.66
2023-02-24T01:13:46.371Z,94261.69
2023-02-24T01:16:18.514Z,94252.06
2023-02-24T01:18:47.619Z,94252.00
2023-02-24T01:21:14.830Z,94244.50
2023-02-24T01:23:42.428Z,94246.97
2023-02-24T01:26:10.447Z,94241.72
2023-02-24T01:28:37.576Z,94230.84
2023-02-24T01:31:05.788Z,94236.16
2023-02-24T01:33:39.304Z,94228.81
2023-02-24T01:36:10.583Z,94227.78
2023-02-24T01:38:37.210Z,94236.22
2023-02-24T01:41:05.231Z,94226.34
2023-02-24T01:43:33.658Z,94225.94
2023-02-24T01:46:00.216Z,94223.09
2023-02-24T01:48:29.933Z,94222.22
2023-02-24T01:50:56.615Z,94224.53
2023-02-24T01:53:24.051Z,94218.56
2023-02-24T01:55:51.354Z,94216.28
2023-02-24T01:58:23.838Z,94208.59
2023-02-24T02:00:52.429Z,94210.41
2023-02-24T02:03:31.044Z,94203.34
2023-02-24T02:06:01.697Z,94200.50
2023-02-24T02:08:28.973Z,94203.06
2023-02-24T02:10:59.200Z,94196.13
2023-02-24T02:13:27.786Z,94195.59
2023-02-24T02:16:16.433Z,94192.03
2023-02-24T02:18:56.132Z,94191.50
2023-02-24T02:21:49.637Z,94191.16
2023-02-24T02:24:26.233Z,94190.41
2023-02-24T02:27:14.506Z,94204.50
2023-02-24T02:29:56.715Z,94207.50
2023-02-24T02:32:52.399Z,94211.13
2023-02-24T02:35:24.613Z,94210.13
2023-02-24T02:37:56.246Z,94212.75
2023-02-24T02:40:27.802Z,94209.09
2023-02-24T02:42:59.470Z,94207.72
2023-02-24T02:45:30.965Z,94214.34
2023-02-24T02:48:01.820Z,94210.63
2023-02-24T02:50:35.872Z,94210.56
2023-02-24T02:53:06.685Z,94214.59
2023-02-24T02:55:38.844Z,94213.16
2023-02-24T02:58:10.413Z,94206.97
2023-02-24T03:00:42.763Z,94201.13
2023-02-24T03:03:13.877Z,94199.91
2023-02-24T03:05:48.016Z,94193.03
2023-02-24T03:08:18.359Z,94200.91
2023-02-24T03:10:50.525Z,94197.50
2023-02-24T03:13:21.014Z,94196.63
2023-02-24T03:15:50.136Z,94197.88
2023-02-24T03:18:22.439Z,94193.09
2023-02-24T03:20:56.969Z,94193.69
2023-02-24T03:23:27.220Z,94198.72
2023-02-24T03:25:58.792Z,94186.78
2023-02-24T03:28:33.961Z,94190.06
2023-02-24T03:31:06.544Z,94185.88
2023-02-24T03:33:37.583Z,94187.72
2023-02-24T03:36:05.929Z,94184.72
2023-02-24T03:38:33.950Z,94187.13
2023-02-24T03:41:00.656Z,94192.38
2023-02-24T03:43:31.637Z,94193.47
2023-02-24T03:45:59.271Z,94184.88
2023-02-24T03:48:27.832Z,94189.69
2023-02-24T03:50:55.176Z,94194.34
2023-02-24T03:53:31.918Z,94175.44
2023-02-24T03:56:10.879Z,94184.50
2023-02-24T03:58:52.367Z,94177.91
2023-02-24T04:01:25.400Z,94177.50
2023-02-24T04:04:00.288Z,94182.28
2023-02-24T04:06:34.255Z,94181.75
2023-02-24T04:09:10.305Z,94185.84
2023-02-24T04:11:45.930Z,94178.78
2023-02-24T04:14:18.635Z,94174.34
2023-02-24T04:16:51.135Z,94165.22
2023-02-24T04:19:21.456Z,94166.31
2023-02-24T04:21:49.779Z,94162.69
2023-02-24T04:24:22.004Z,94157.44
2023-02-24T04:26:49.831Z,94164.41
2023-02-24T04:29:22.972Z,94157.88
2023-02-24T04:31:54.125Z,94158.72
2023-02-24T04:34:20.889Z,94156.41
2023-02-24T04:36:50.608Z,94154.91
2023-02-24T04:39:18.956Z,94153.91
2023-02-24T04:41:45.746Z,94152.47
2023-02-24T04:44:12.263Z,94152.81
2023-02-24T04:46:38.889Z,94144.97
2023-02-24T04:49:05.553Z,94150.22
2023-02-24T04:51:33.888Z,94147.47
2023-02-24T04:54:00.410Z,94139.59
2023-02-24T04:56:28.981Z,94136.53
2023-02-24T04:58:55.723Z,94131.09
2023-02-24T05:01:22.606Z,94128.94
2023-02-24T05:03:49.277Z,94125.31
2023-02-24T05:06:17.816Z,94122.09
2023-02-24T05:08:44.945Z,94112.13
2023-02-24T05:11:15.859Z,94109.72
2023-02-24T05:13:47.656Z,94104.69
2023-02-24T05:16:16.212Z,94105.78
2023-02-24T05:18:44.623Z,94100.75
2023-02-24T05:21:32.243Z,94099.22
2023-02-24T05:23:59.602Z,94095.78
2023-02-24T05:26:27.021Z,94097.59
2023-02-24T05:28:56.509Z,94093.69
2023-02-24T05:31:26.541Z,94085.72
2023-02-24T05:33:55.054Z,94090.34
2023-02-24T05:36:22.512Z,94079.56
2023-02-24T05:38:56.578Z,94080.16
2023-02-24T05:41:32.335Z,94077.97
2023-02-24T05:44:02.385Z,94076.34
2023-02-24T05:46:32.500Z,94073.31
2023-02-24T05:49:00.864Z,94075.19
2023-02-24T05:51:35.526Z,94072.88
2023-02-24T05:54:04.503Z,94071.38
2023-02-24T05:56:32.682Z,94068.19
2023-02-24T05:59:04.386Z,94071.66
2023-02-24T06:01:33.269Z,94066.16
2023-02-24T06:04:07.768Z,94069.94
2023-02-24T06:06:35.567Z,94063.25
2023-02-24T06:09:07.501Z,94070.44
2023-02-24T06:11:34.389Z,94065.56
2023-02-24T06:14:02.886Z,94065.84
2023-02-24T06:16:30.382Z,94065.50
2023-02-24T06:18:57.918Z,94067.09
2023-02-24T06:21:26.179Z,94076.94
2023-02-24T06:23:52.781Z,94067.94
2023-02-24T06:26:19.647Z,94072.41
2023-02-24T06:28:47.970Z,94075.41
2023-02-24T06:31:16.172Z,94071.13
2023-02-24T06:33:42.902Z,94069.94
2023-02-24T06:36:09.870Z,94065.72
2023-02-24T06:38:37.073Z,94060.69
2023-02-24T06:41:10.660Z,94064.91
2023-02-24T06:43:38.704Z,94065.41
2023-02-24T06:46:06.293Z,94061.69
2023-02-24T06:48:34.524Z,94061.19
2023-02-24T06:51:05.075Z,94068.94
2023-02-24T06:53:34.802Z,94057.28
2023-02-24T06:56:06.935Z,94066.59
2023-02-24T06:58:33.506Z,94061.28
2023-02-24T07:01:02.538Z,94059.38
2023-02-24T07:03:47.511Z,94054.66
2023-02-24T07:06:23.487Z,94053.91
2023-02-24T07:08:51.982Z,94052.66
2023-02-24T07:11:19.587Z,94054.94
2023-02-24T07:13:47.971Z,94054.28
2023-02-24T07:16:16.018Z,94050.31
2023-02-24T07:18:48.152Z,94048.91
2023-02-24T07:21:17.860Z,94049.44
2023-02-24T07:23:45.183Z,94048.28
2023-02-24T07:26:13.747Z,94041.44
2023-02-24T07:28:42.827Z,94044.38
2023-02-24T07:31:11.800Z,94045.56
2023-02-24T07:33:38.979Z,94041.19
2023-02-24T07:36:10.305Z,94041.16
2023-02-24T07:38:39.355Z,94034.22
2023-02-24T07:41:07.300Z,94025.97
2023-02-24T07:43:34.489Z,94025.84
2023-02-24T07:46:08.403Z,94022.34
2023-02-24T07:48:36.406Z,94025.69
2023-02-24T07:51:07.157Z,94017.44
2023-02-24T07:53:33.739Z,94012.75
2023-02-24T07:56:06.805Z,94020.06
2023-02-24T07:58:34.273Z,94015.88
2023-02-24T08:01:08.036Z,94007.28
2023-02-24T08:03:34.842Z,94011.00
2023-02-24T08:06:12.981Z,94006.84
2023-02-24T08:08:57.789Z,93998.75
2023-02-24T08:11:27.166Z,94011.34
2023-02-24T08:13:53.879Z,94000.50
2023-02-24T08:16:20.476Z,93998.34
2023-02-24T08:18:49.023Z,94000.81
2023-02-24T08:21:16.495Z,94000.78
2023-02-24T08:23:46.013Z,93995.16
2023-02-24T08:26:12.807Z,93993.25
2023-02-24T08:28:40.910Z,93987.34
2023-02-24T08:31:08.002Z,93988.97
2023-02-24T08:33:37.237Z,93995.16
2023-02-24T08:36:04.242Z,94000.94
2023-02-24T08:38:40.099Z,93991.38
2023-02-24T08:41:13.125Z,93995.72
2023-02-24T08:43:41.067Z,93980.66
2023-02-24T08:46:18.448Z,93969.31
2023-02-24T08:48:47.977Z,93972.66
2023-02-24T08:51:17.782Z,93972.75
2023-02-24T08:53:46.599Z,93969.53
2023-02-24T08:56:24.359Z,93964.25
2023-02-24T08:58:58.709Z,93962.91
2023-02-24T09:01:27.785Z,93955.50
2023-02-24T09:03:56.751Z,93952.19
2023-02-24T09:06:34.039Z,93950.03
2023-02-24T09:09:20.934Z,93942.13
2023-02-24T09:11:49.374Z,93935.41
2023-02-24T09:14:27.303Z,93928.91
2023-02-24T09:17:11.397Z,93934.81
2023-02-24T09:19:52.126Z,93917.34
2023-02-24T09:22:40.609Z,93912.97
2023-02-24T09:25:18.991Z,93909.53
2023-02-24T09:27:48.069Z,93904.03
2023-02-24T09:30:34.916Z,93913.25
2023-02-24T09:33:06.403Z,93908.06
2023-02-24T09:35:36.835Z,93900.06
2023-02-24T09:38:07.163Z,93892.91
2023-02-24T09:40:48.694Z,93898.19
2023-02-24T09:43:18.765Z,93894.41
2023-02-24T09:45:54.617Z,93884.16
2023-02-24T09:48:30.159Z,93892.56
2023-02-24T09:51:05.506Z,93879.72
2023-02-24T09:53:49.148Z,93882.25
2023-02-24T09:56:22.667Z,93877.53
2023-02-24T09:58:58.464Z,93869.09
2023-02-24T10:01:43.941Z,93865.34
2023-02-24T10:04:29.312Z,93860.41
2023-02-24T10:07:02.970Z,93853.50
2023-02-24T10:09:35.317Z,93859.88
2023-02-24T10:12:07.093Z,93857.66
2023-02-24T10:14:43.726Z,93852.22
2023-02-24T10:17:24.851Z,93840.84
2023-02-24T10:19:59.942Z,93837.28
2023-02-24T10:22:50.422Z,93835.28
2023-02-24T10:25:36.378Z,93842.34
2023-02-24T10:28:12.826Z,93832.91
2023-02-24T10:30:48.725Z,93838.72
2023-02-24T10:33:27.336Z,93831.78
2023-02-24T10:36:09.053Z,93830.25
2023-02-24T10:38:36.883Z,93810.22
2023-02-24T10:41:06.181Z,93814.47
2023-02-24T10:43:44.280Z,93821.81
2023-02-24T10:46:26.503Z,93815.28
2023-02-24T10:49:09.430Z,93807.22
2023-02-24T10:51:40.283Z,93801.16
2023-02-24T10:54:30.547Z,93799.28
2023-02-24T10:57:18.153Z,93803.63
2023-02-24T11:00:11.765Z,93798.31
2023-02-24T11:02:58.222Z,93786.25
2023-02-24T11:05:44.303Z,93787.28
2023-02-24T11:08:33.355Z,93784.56
2023-02-24T11:11:07.086Z,93769.00
2023-02-24T11:14:02.537Z,93771.97
2023-02-24T11:16:47.860Z,93766.41
2023-02-24T11:19:15.471Z,93765.00
2023-02-24T11:21:43.813Z,93752.59
2023-02-24T11:24:17.395Z,93756.34
2023-02-24T11:26:45.722Z,93756.63
2023-02-24T11:29:27.014Z,93749.69
2023-02-24T11:32:08.925Z,93743.81
2023-02-24T11:34:49.484Z,93738.28
2023-02-24T11:37:27.319Z,93740.91
2023-02-24T11:39:58.846Z,93736.13
2023-02-24T11:42:30.855Z,93724.41
2023-02-24T11:45:03.968Z,93720.81
2023-02-24T11:47:38.845Z,93719.66
2023-02-24T11:50:26.080Z,93717.81
2023-02-24T11:52:56.970Z,93713.03
2023-02-24T11:55:34.358Z,93711.47
2023-02-24T11:58:05.745Z,93710.16
2023-02-24T12:00:37.339Z,93704.97
2023-02-24T12:03:09.413Z,93686.88
2023-02-24T12:05:39.765Z,93683.59
2023-02-24T12:08:16.128Z,93676.66
2023-02-24T12:10:48.579Z,93672.19
2023-02-24T12:13:23.588Z,93674.66
2023-02-24T12:15:56.596Z,93659.59
2023-02-24T12:18:27.558Z,93667.50
2023-02-24T12:21:00.425Z,93664.88
2023-02-24T12:23:32.947Z,93660.91
2023-02-24T12:26:09.877Z,93657.72
2023-02-24T12:29:16.055Z,93651.34
2023-02-24T12:31:54.396Z,93643.41
2023-02-24T12:34:35.387Z,93642.63
2023-02-24T12:37:19.678Z,93639.94
2023-02-24T12:39:59.037Z,93630.66
2023-02-24T12:42:31.133Z,93632.28
2023-02-24T12:45:03.875Z,93631.50
2023-02-24T12:47:41.150Z,93624.88
2023-02-24T12:50:19.380Z,93625.66
2023-02-24T12:52:54.724Z,93619.28
2023-02-24T12:55:27.787Z,93603.66
2023-02-24T12:58:02.344Z,93616.38
2023-02-24T13:00:40.163Z,93608.94
2023-02-24T13:03:24.932Z,93613.91
2023-02-24T13:06:02.679Z,93611.59
2023-02-24T13:08:42.365Z,93609.91
2023-02-24T13:11:16.133Z,93606.16
2023-02-24T13:13:50.393Z,93610.84
2023-02-24T13:16:27.537Z,93603.84
2023-02-24T13:19:04.972Z,93602.84
2023-02-24T13:21:33.374Z,93599.97
2023-02-24T13:24:01.687Z,93592.63
2023-02-24T13:26:31.302Z,93591.16
2023-02-24T13:28:59.251Z,93588.03
2023-02-24T13:31:26.347Z,93595.72
2023-02-24T13:33:53.084Z,93595.91
2023-02-24T13:36:22.618Z,93590.84
2023-02-24T13:38:51.002Z,93588.78
2023-02-24T13:41:40.541Z,93586.38
2023-02-24T13:44:25.757Z,93590.06
2023-02-24T13:47:20.110Z,93582.50
2023-02-24T13:49:58.679Z,93575.47
2023-02-24T13:52:38.269Z,93577.56
2023-02-24T13:55:17.172Z,93574.44
2023-02-24T13:58:04.756Z,93569.44
2023-02-24T14:00:42.274Z,93562.91
2023-02-24T14:03:12.312Z,93565.25
2023-02-24T14:05:41.932Z,93552.88
2023-02-24T14:08:08.444Z,93561.56
2023-02-24T14:10:37.661Z,93560.22
2023-02-24T14:13:14.582Z,93555.75
2023-02-24T14:15:43.931Z,93547.47
2023-02-24T14:18:18.650Z,93541.34
2023-02-24T14:20:45.389Z,93541.72
2023-02-24T14:23:22.342Z,93548.53
2023-02-24T14:25:54.597Z,93527.84
2023-02-24T14:28:25.255Z,93529.81
2023-02-24T14:30:54.863Z,93529.69
2023-02-24T14:33:25.731Z,93526.53
2023-02-24T14:35:52.515Z,93519.06
2023-02-24T14:38:31.828Z,93526.91
2023-02-24T14:40:58.446Z,93517.06
2023-02-24T14:43:26.909Z,93516.31
2023-02-24T14:45:54.400Z,93515.25
2023-02-24T14:48:24.572Z,93515.13
2023-02-24T14:50:51.748Z,93504.66
2023-02-24T14:53:22.135Z,93497.53
2023-02-24T14:55:51.563Z,93508.13
2023-02-24T14:58:22.071Z,93497.13
2023-02-24T15:00:53.385Z,93498.03
2023-02-24T15:03:25.058Z,93494.03
2023-02-24T15:05:55.231Z,93498.91
2023-02-24T15:08:35.312Z,93497.34
2023-02-24T15:11:11.146Z,93480.03
2023-02-24T15:13:41.569Z,93474.13
2023-02-24T15:16:14.660Z,93477.16
2023-02-24T15:18:42.158Z,93476.84
2023-02-24T15:21:20.502Z,93472.13
2023-02-24T15:24:04.343Z,93468.69
2023-02-24T15:26:32.911Z,93469.22
2023-02-24T15:29:01.448Z,93471.59
2023-02-24T15:31:29.482Z,93480.59
2023-02-24T15:33:59.964Z,93472.63
2023-02-24T15:36:31.227Z,93471.59
2023-02-24T15:39:01.941Z,93453.63
2023-02-24T15:41:42.353Z,93460.75
2023-02-24T15:44:25.764Z,93452.81
2023-02-24T15:46:52.384Z,93455.19
2023-02-24T15:49:18.978Z,93453.09
2023-02-24T15:51:47.140Z,93452.81
2023-02-24T15:54:18.923Z,93449.66
2023-02-24T15:56:48.661Z,93448.31
2023-02-24T15:59:15.680Z,93441.38
2023-02-24T16:01:42.332Z,93446.13
2023-02-24T16:04:09.638Z,93444.00
2023-02-24T16:06:43.389Z,93434.56
2023-02-24T16:09:13.714Z,93430.31
2023-02-24T16:11:43.659Z,93436.34
2023-02-24T16:14:16.751Z,93432.09
2023-02-24T16:16:44.523Z,93430.25
2023-02-24T16:19:14.087Z,93424.94
2023-02-24T16:21:40.773Z,93426.22
2023-02-24T16:24:07.434Z,93432.31
2023-02-24T16:26:37.461Z,93440.50
2023-02-24T16:29:11.467Z,93436.06
2023-02-24T16:31:39.889Z,93430.00
2023-02-24T16:34:07.809Z,93419.69
2023-02-24T16:36:35.483Z,93414.94
2023-02-24T16:39:02.222Z,93418.31
2023-02-24T16:41:30.479Z,93424.94
2023-02-24T16:43:57.024Z,93434.16
2023-02-24T16:46:24.126Z,93426.50
2023-02-24T16:48:53.440Z,93430.75
2023-02-24T16:51:21.635Z,93418.81
2023-02-24T16:53:48.193Z,93423.81
2023-02-24T16:56:15.629Z,93430.69
2023-02-24T16:58:42.232Z,93434.94
2023-02-24T17:01:15.717Z,93431.75
2023-02-24T17:03:44.129Z,93435.97
2023-02-24T17:06:12.134Z,93438.34
2023-02-24T17:08:39.485Z,93438.06
2023-02-24T17:11:06.219Z,93434.38
2023-02-24T17:13:32.789Z,93430.03
2023-02-24T17:15:59.491Z,93437.53
2023-02-24T17:18:26.780Z,93432.47
2023-02-24T17:20:53.841Z,93429.31
2023-02-24T17:23:22.014Z,93434.88
2023-02-24T17:25:52.706Z,93433.81
2023-02-24T17:28:19.872Z,93436.66
2023-02-24T17:30:46.607Z,93435.47
2023-02-24T17:33:14.389Z,93438.56
2023-02-24T17:35:41.106Z,93438.03
2023-02-24T17:38:11.025Z,93448.09
2023-02-24T17:40:38.999Z,93441.69
2023-02-24T17:43:05.613Z,93444.88
2023-02-24T17:45:32.174Z,93447.81
2023-02-24T17:47:58.844Z,93468.63
2023-02-24T17:50:25.476Z,93472.59
2023-02-24T17:52:52.073Z,93474.97
2023-02-24T17:55:18.812Z,93475.25
2023-02-24T17:57:46.806Z,93475.84
2023-02-24T18:00:15.536Z,93481.41
2023-02-24T18:02:42.222Z,93485.13
2023-02-24T18:05:10.033Z,93475.88
2023-02-24T18:07:36.882Z,93477.59
2023-02-24T18:10:04.907Z,93480.88
2023-02-24T18:12:31.550Z,93473.75
2023-02-24T18:15:08.391Z,93479.50
2023-02-24T18:17:36.165Z,93478.97
2023-02-24T18:20:03.071Z,93482.22
2023-02-24T18:22:29.633Z,93484.31
2023-02-24T18:24:56.254Z,93493.38
2023-02-24T18:27:22.841Z,93469.53
2023-02-24T18:29:49.474Z,93472.44
2023-02-24T18:32:17.792Z,93468.75
2023-02-24T18:34:44.717Z,93466.34
2023-02-24T18:37:11.484Z,93462.41
2023-02-24T18:39:38.228Z,93464.00
2023-02-24T18:42:04.954Z,93458.72
2023-02-24T18:44:31.580Z,93470.59
2023-02-24T18:46:58.162Z,93460.81
2023-02-24T18:49:26.109Z,93451.28
2023-02-24T18:51:52.697Z,93451.31
2023-02-24T18:54:20.130Z,93454.72
2023-02-24T18:56:46.779Z,93457.91
2023-02-24T18:59:13.335Z,93462.69
2023-02-24T19:01:40.317Z,93468.75
2023-02-24T19:04:08.546Z,93454.75
2023-02-24T19:06:37.805Z,93456.34
2023-02-24T19:09:07.162Z,93465.31
2023-02-24T19:11:34.081Z,93470.88
2023-02-24T19:14:00.756Z,93474.03
2023-02-24T19:16:27.679Z,93475.88
2023-02-24T19:18:56.479Z,93485.66
2023-02-24T19:21:24.234Z,93498.88
2023-02-24T19:23:52.602Z,93511.25
2023-02-24T19:26:21.702Z,93508.63
2023-02-24T19:28:48.988Z,93499.13
2023-02-24T19:31:17.869Z,93497.03
2023-02-24T19:33:45.227Z,93471.00
2023-02-24T19:36:12.201Z,93462.72
2023-02-24T19:38:41.713Z,93450.69
2023-02-24T19:41:09.722Z,93461.69
2023-02-24T19:43:36.372Z,93462.59
2023-02-24T19:46:06.778Z,93465.56
2023-02-24T19:48:33.707Z,93447.59
2023-02-24T19:51:00.828Z,93443.91
2023-02-24T19:53:27.573Z,93447.34
2023-02-24T19:55:54.140Z,93450.78
2023-02-24T19:58:22.320Z,93457.91
2023-02-24T20:00:49.256Z,93454.47
2023-02-24T20:03:16.107Z,93447.34
2023-02-24T20:05:42.669Z,93450.25
2023-02-24T20:08:09.271Z,93454.41
2023-02-24T20:10:35.842Z,93447.31
2023-02-24T20:13:02.383Z,93443.84
2023-02-24T20:15:32.259Z,93465.00
2023-02-24T20:18:03.085Z,93443.88
2023-02-24T20:20:30.373Z,93413.97
2023-02-24T20:22:56.928Z,93407.97
2023-02-24T20:25:23.548Z,93404.28
2023-02-24T20:27:50.135Z,93393.06
2023-02-24T20:30:16.972Z,93358.50
2023-02-24T20:32:45.001Z,93351.41
2023-02-24T20:35:11.725Z,93335.59
2023-02-24T20:37:38.358Z,93332.16
2023-02-24T20:40:06.149Z,93332.44
2023-02-24T20:42:32.748Z,93322.91
2023-02-24T20:44:59.289Z,93323.19
2023-02-24T20:47:25.920Z,93316.31
2023-02-24T20:49:53.855Z,93307.63
2023-02-24T20:52:20.431Z,93307.38
2023-02-24T20:54:47.383Z,93290.41
2023-02-24T20:57:14.152Z,93292.53
2023-02-24T20:59:49.234Z,93299.41
2023-02-24T21:02:18.328Z,93300.19
2023-02-24T21:04:44.906Z,93321.06
2023-02-24T21:07:14.671Z,93295.22
2023-02-24T21:09:41.067Z,93293.13
2023-02-24T21:12:07.898Z,93271.84
2023-02-24T21:14:34.691Z,93268.38
2023-02-24T21:17:01.260Z,93269.03
2023-02-24T21:19:27.804Z,93274.31
2023-02-24T21:21:54.357Z,93268.38
2023-02-24T21:24:23.940Z,93271.63
2023-02-24T21:26:50.775Z,93269.81
2023-02-24T21:29:17.403Z,93269.03
2023-02-24T21:31:44.074Z,93258.47
2023-02-24T21:34:12.006Z,93255.44
2023-02-24T21:36:38.989Z,93256.09
2023-02-24T21:39:06.669Z,93247.81
2023-02-24T21:41:35.716Z,93271.91
2023-02-24T21:44:02.289Z,93240.91
2023-02-24T21:46:29.367Z,93255.28
2023-02-24T21:48:56.982Z,93252.13
2023-02-24T21:51:25.165Z,93263.94
2023-02-24T21:53:54.872Z,93258.81
2023-02-24T21:56:23.054Z,93272.66
2023-02-24T21:58:56.366Z,93252.41
2023-02-24T22:01:24.853Z,93238.06
2023-02-24T22:03:53.025Z,93239.91
2023-02-24T22:06:19.979Z,93232.31
2023-02-24T22:08:46.827Z,93233.31
2023-02-24T22:11:15.399Z,93234.38
2023-02-24T22:13:44.192Z,93232.47
2023-02-24T22:16:15.193Z,93230.53
2023-02-24T22:18:41.854Z,93238.56
2023-02-24T22:21:09.852Z,93251.78
2023-02-24T22:23:36.480Z,93258.41
2023-02-24T22:26:04.825Z,93269.84
2023-02-24T22:28:33.023Z,93255.44
2023-02-24T22:30:59.954Z,93248.25
2023-02-24T22:33:28.351Z,93252.47
2023-02-24T22:35:55.029Z,93245.59
2023-02-24T22:38:21.687Z,93244.66
2023-02-24T22:40:56.807Z,93229.88
2023-02-24T22:43:23.337Z,93218.81
2023-02-24T22:45:55.877Z,93218.56
2023-02-24T22:48:23.231Z,93237.16
2023-02-24T22:50:54.180Z,93257.25
2023-02-24T22:53:20.739Z,93277.31
2023-02-24T22:55:47.552Z,93292.03
2023-02-24T22:58:14.194Z,93292.03
2023-02-24T23:00:40.947Z,93289.78
2023-02-24T23:03:07.851Z,93299.69
2023-02-24T23:05:34.395Z,93305.38
2023-02-24T23:08:03.361Z,93325.22
2023-02-24T23:10:29.993Z,93373.78
2023-02-24T23:12:56.942Z,93415.13
2023-02-24T23:15:23.457Z,93441.13
2023-02-24T23:17:49.968Z,93471.16
2023-02-24T23:20:17.317Z,93490.47
2023-02-24T23:22:45.166Z,93510.69
2023-02-24T23:25:13.078Z,93530.94
2023-02-24T23:27:40.447Z,93531.81
2023-02-24T23:30:09.696Z,93539.97
2023-02-24T23:32:36.772Z,93546.56
2023-02-24T23:35:03.896Z,93556.63
2023-02-24T23:37:30.554Z,93557.56
2023-02-24T23:39:57.740Z,93545.97
2023-02-24T23:42:25.626Z,93550.91
2023-02-24T23:44:52.683Z,93543.63
2023-02-24T23:47:19.541Z,93524.34
2023-02-24T23:49:48.368Z,93516.28
2023-02-24T23:52:15.588Z,93520.34
2023-02-24T23:54:42.167Z,93527.47
2023-02-24T23:57:08.727Z,93515.66
2023-02-24T23:59:37.488Z,93508.63
